Time;durP1;ratioP1;P1;durP2;ratioP2;P2;SDS_P1;SDS_P2;PMS_P1;PMS_P2;Temp;Humidity;BMP_temperature;BMP_pressure;BME280_temperature;BME280_humidity;BME280_pressure;Samples;Min_cycle;Max_cycle;Signal;HPM_P1;HPM_P2
2023/05/09 00:00:42;;;;;;;16.77;11.23;;;;;;;17.34;65.16;101724.38;5057807;28;20045;-60
2023/05/09 00:03:11;;;;;;;16.67;11.70;;;;;;;17.33;65.18;101719.22;5053036;28;20049;-61
2023/05/09 00:05:39;;;;;;;16.92;12.05;;;;;;;17.32;65.19;101715.69;5052973;28;20060;-60
2023/05/09 00:08:07;;;;;;;14.23;10.48;;;;;;;17.31;65.07;101722.19;5052034;28;20058;-60
2023/05/09 00:10:35;;;;;;;16.88;12.13;;;;;;;17.30;65.14;101711.56;5053200;28;20080;-61
2023/05/09 00:13:04;;;;;;;14.82;11.13;;;;;;;17.30;65.18;101714.28;5051270;28;20059;-61
2023/05/09 00:15:33;;;;;;;16.15;11.45;;;;;;;17.30;65.18;101714.28;5051387;28;20053;-60
2023/05/09 00:18:00;;;;;;;12.48;9.80;;;;;;;17.28;65.07;101700.94;5058699;28;20051;-60
2023/05/09 00:20:28;;;;;;;16.02;10.98;;;;;;;17.28;65.15;101692.78;5052095;28;20105;-60
2023/05/09 00:22:57;;;;;;;16.17;10.88;;;;;;;17.28;65.16;101700.13;5057680;28;20076;-61
2023/05/09 00:25:25;;;;;;;16.70;11.13;;;;;;;17.27;65.06;101690.31;5053608;28;20049;-60
2023/05/09 00:27:53;;;;;;;15.50;10.10;;;;;;;17.26;65.03;101692.22;5055099;28;20542;-57
2023/05/09 00:30:22;;;;;;;13.45;9.40;;;;;;;17.26;65.03;101694.94;5050049;28;20076;-59
2023/05/09 00:32:50;;;;;;;14.50;9.70;;;;;;;17.25;65.11;101696.00;5053672;28;20510;-61
2023/05/09 00:35:18;;;;;;;13.30;9.43;;;;;;;17.24;65.00;101681.59;5055713;28;20104;-61
2023/05/09 00:37:46;;;;;;;17.05;9.50;;;;;;;17.22;65.17;101672.88;5058953;28;20064;-60
2023/05/09 00:40:14;;;;;;;14.27;9.95;;;;;;;17.23;65.04;101676.41;5051675;28;20246;-60
2023/05/09 00:42:42;;;;;;;15.48;10.45;;;;;;;17.21;65.05;101673.94;5055212;28;20075;-60
2023/05/09 00:45:10;;;;;;;14.32;9.68;;;;;;;17.21;65.00;101681.25;5055781;28;20351;-58
2023/05/09 00:47:41;;;;;;;13.45;9.18;;;;;;;17.21;65.01;101686.69;5055025;28;20088;-60
2023/05/09 00:50:09;;;;;;;13.75;9.90;;;;;;;17.21;65.15;101675.81;5054063;28;20056;-61
2023/05/09 00:52:38;;;;;;;12.80;9.48;;;;;;;17.19;65.18;101678.78;5052544;28;20041;-60
2023/05/09 00:55:08;;;;;;;13.10;9.30;;;;;;;17.19;65.04;101672.53;5058676;28;20045;-60
2023/05/09 00:57:37;;;;;;;12.20;8.63;;;;;;;17.17;65.07;101664.63;5056585;28;20045;-60
2023/05/09 01:00:11;;;;;;;11.05;8.43;;;;;;;17.18;65.14;101663.56;5058030;28;20081;-59
2023/05/09 01:02:42;;;;;;;10.98;8.48;;;;;;;17.17;65.13;101656.47;5053254;28;20415;-60
2023/05/09 01:05:11;;;;;;;13.55;8.60;;;;;;;17.15;65.19;101647.75;5055957;28;20054;-60
2023/05/09 01:07:46;;;;;;;13.77;8.75;;;;;;;17.16;65.02;101645.84;5053589;28;20123;-60
2023/05/09 01:10:21;;;;;;;10.90;8.20;;;;;;;17.14;65.08;101637.13;5060080;28;20073;-60
2023/05/09 01:12:56;;;;;;;10.27;7.78;;;;;;;17.12;65.07;101633.84;5054897;28;20095;-58
2023/05/09 01:15:31;;;;;;;11.52;8.15;;;;;;;17.11;65.12;101643.06;5054475;28;20053;-60
2023/05/09 01:18:06;;;;;;;12.60;8.30;;;;;;;17.10;65.17;101638.69;5054846;28;20115;-60
2023/05/09 01:20:38;;;;;;;10.77;8.02;;;;;;;17.09;65.29;101634.34;5049102;28;20402;-60
2023/05/09 01:23:46;;;;;;;11.75;7.65;;;;;;;17.08;65.24;101629.97;5051831;28;20156;-61
2023/05/09 01:26:21;;;;;;;12.52;8.13;;;;;;;17.07;65.24;101612.03;5057346;28;20059;-60
2023/05/09 01:29:10;;;;;;;12.63;8.65;;;;;;;17.04;65.36;101607.91;5050302;28;20079;-60
2023/05/09 01:31:41;;;;;;;13.88;8.13;;;;;;;17.04;65.26;101610.63;5054575;28;20064;-58
2023/05/09 01:34:11;;;;;;;13.60;8.65;;;;;;;17.03;65.57;101619.03;5056069;28;20068;-56
2023/05/09 01:36:42;;;;;;;11.27;8.07;;;;;;;17.02;65.32;101607.34;5055063;28;20131;-61
2023/05/09 01:39:12;;;;;;;13.15;8.50;;;;;;;17.01;65.43;101604.88;5051323;28;20049;-60
2023/05/09 01:41:40;;;;;;;13.13;8.48;;;;;;;17.01;65.36;101604.88;5048911;28;20042;-60
2023/05/09 01:44:13;;;;;;;11.98;8.23;;;;;;;16.88;65.34;101587.81;5059885;28;20083;-60
2023/05/09 01:46:43;;;;;;;12.63;8.20;;;;;;;16.98;65.54;101597.22;5052569;28;20350;-60
2023/05/09 01:49:11;;;;;;;13.52;9.48;;;;;;;16.98;65.38;101595.31;5059661;28;20352;-62
2023/05/09 01:51:41;;;;;;;13.73;8.65;;;;;;;16.97;65.41;101593.66;5052098;28;20045;-60
2023/05/09 01:54:12;;;;;;;13.10;8.40;;;;;;;16.96;65.39;101597.44;5055093;28;20073;-60
2023/05/09 01:56:42;;;;;;;11.50;8.68;;;;;;;16.83;65.09;101576.03;5058967;28;20067;-60
2023/05/09 01:59:14;;;;;;;10.35;7.72;;;;;;;16.94;65.32;101588.72;5050336;28;20073;-57
2023/05/09 02:01:43;;;;;;;10.25;7.63;;;;;;;16.92;65.23;101588.97;5057866;28;20049;-60
2023/05/09 02:04:11;;;;;;;11.40;7.45;;;;;;;16.92;65.30;101583.53;5055791;28;20049;-60
2023/05/09 02:06:40;;;;;;;12.90;8.00;;;;;;;16.91;65.42;101579.19;5053022;28;20045;-61
2023/05/09 02:09:09;;;;;;;12.55;8.40;;;;;;;16.91;65.25;101581.06;5054219;28;20072;-61
2023/05/09 02:11:36;;;;;;;14.70;8.35;;;;;;;16.86;65.40;101567.41;5061344;28;20041;-60
2023/05/09 02:14:05;;;;;;;9.77;7.25;;;;;;;16.90;65.30;101574.81;5050078;28;20612;-60
2023/05/09 02:16:34;;;;;;;13.10;8.63;;;;;;;16.89;65.23;101569.63;5057071;28;20053;-60
2023/05/09 02:19:02;;;;;;;12.90;7.55;;;;;;;16.89;65.24;101570.47;5053739;28;20407;-60
2023/05/09 02:21:30;;;;;;;13.88;8.48;;;;;;;16.81;65.43;101568.16;5056028;28;20064;-60
2023/05/09 02:23:58;;;;;;;11.68;7.53;;;;;;;16.88;65.39;101589.72;5052389;28;20042;-60
2023/05/09 02:26:28;;;;;;;11.27;8.23;;;;;;;16.87;65.31;101583.47;5055796;28;20048;-59
2023/05/09 02:28:56;;;;;;;10.20;7.28;;;;;;;16.87;65.10;101588.06;5054341;28;20056;-60
2023/05/09 02:31:27;;;;;;;10.68;7.50;;;;;;;16.78;65.31;101568.63;5059183;28;20541;-61
2023/05/09 02:33:58;;;;;;;12.13;7.15;;;;;;;16.86;65.27;101581.00;5054283;28;20203;-56
2023/05/09 02:36:26;;;;;;;9.10;6.95;;;;;;;16.84;65.35;101581.22;5057046;28;20079;-62
2023/05/09 02:38:54;;;;;;;13.65;7.38;;;;;;;16.84;65.31;101583.13;5061253;28;20044;-60
2023/05/09 02:41:22;;;;;;;10.93;7.43;;;;;;;16.84;65.28;101583.13;5055435;28;20124;-62
2023/05/09 02:43:50;;;;;;;9.85;6.95;;;;;;;16.82;65.17;101582.53;5054599;28;20053;-61
2023/05/09 02:46:18;;;;;;;10.38;7.40;;;;;;;16.80;65.28;101569.22;5055068;28;20071;-63
2023/05/09 02:48:46;;;;;;;9.55;6.55;;;;;;;16.80;65.39;101569.22;5051466;28;20069;-60
2023/05/09 02:51:15;;;;;;;9.93;7.10;;;;;;;16.80;65.24;101562.97;5053815;28;20049;-60
2023/05/09 02:53:43;;;;;;;13.75;7.50;;;;;;;16.79;65.32;101564.03;5049587;28;20121;-62
2023/05/09 02:56:10;;;;;;;9.50;7.10;;;;;;;16.77;65.30;101558.84;5052687;28;20077;-59
2023/05/09 02:58:38;;;;;;;9.73;7.43;;;;;;;16.75;65.37;101558.28;5057015;28;20123;-60
2023/05/09 03:01:06;;;;;;;10.93;7.28;;;;;;;16.75;65.30;101550.13;5049096;28;20077;-60
2023/05/09 03:03:34;;;;;;;9.80;6.93;;;;;;;16.74;65.26;101551.19;5051185;28;20040;-60
2023/05/09 03:06:02;;;;;;;9.77;7.32;;;;;;;16.72;65.36;101545.19;5048292;28;20049;-59
2023/05/09 03:08:31;;;;;;;10.05;7.22;;;;;;;16.72;65.39;101541.66;5058726;28;20055;-59
2023/05/09 03:10:59;;;;;;;12.70;7.75;;;;;;;16.70;65.35;101532.94;5049544;28;20556;-51
2023/05/09 03:13:27;;;;;;;9.80;7.05;;;;;;;16.70;65.67;101538.38;5057136;28;20044;-60
2023/05/09 03:15:55;;;;;;;10.95;6.68;;;;;;;16.68;65.36;101532.34;5050196;28;20084;-59
2023/05/09 03:18:23;;;;;;;10.63;7.57;;;;;;;16.67;65.35;101536.97;5050230;28;20045;-60
2023/05/09 03:20:51;;;;;;;9.48;6.78;;;;;;;16.67;65.39;101528.00;5055916;28;20105;-61
2023/05/09 03:23:19;;;;;;;8.90;6.25;;;;;;;16.66;65.43;101526.34;5052009;28;20179;-60
2023/05/09 03:25:48;;;;;;;11.32;7.10;;;;;;;16.64;65.30;101523.84;5054690;28;20057;-61
2023/05/09 03:28:16;;;;;;;11.10;7.13;;;;;;;16.63;65.21;101533.06;5055635;28;20052;-60
2023/05/09 03:30:44;;;;;;;9.82;6.68;;;;;;;16.62;65.40;101525.97;5049089;28;20104;-60
2023/05/09 03:33:11;;;;;;;11.00;7.03;;;;;;;16.62;65.35;101528.69;5041509;28;20052;-60
2023/05/09 03:35:39;;;;;;;9.60;6.22;;;;;;;16.57;65.39;101523.19;5051958;28;20117;-60
2023/05/09 03:38:07;;;;;;;9.23;6.53;;;;;;;16.61;65.33;101527.06;5055077;28;20076;-52
2023/05/09 03:40:35;;;;;;;9.38;6.53;;;;;;;16.59;65.21;101521.03;5055655;28;20049;-61
2023/05/09 03:43:04;;;;;;;9.20;6.30;;;;;;;16.53;65.30;101516.59;5060302;28;20124;-62
2023/05/09 03:45:34;;;;;;;9.43;6.63;;;;;;;16.57;65.32;101518.56;5048938;28;20053;-59
2023/05/09 03:48:04;;;;;;;9.63;6.72;;;;;;;16.57;65.37;101520.47;5054332;28;20116;-61
2023/05/09 03:50:32;;;;;;;11.95;7.03;;;;;;;16.56;65.31;101518.81;5056493;28;20049;-61
2023/05/09 03:52:59;;;;;;;8.10;5.97;;;;;;;16.55;65.32;101523.44;5047361;28;20047;-60
2023/05/09 03:55:27;;;;;;;8.70;6.35;;;;;;;16.54;65.16;101515.53;5047028;28;20077;-59
2023/05/09 03:57:55;;;;;;;9.57;6.40;;;;;;;16.54;65.23;101513.63;5046292;28;20337;-59
2023/05/09 04:00:25;;;;;;;9.77;5.93;;;;;;;16.53;65.26;101511.16;5048791;28;20053;-60
2023/05/09 04:02:53;;;;;;;8.85;6.30;;;;;;;16.44;65.20;101499.91;5047448;28;20053;-61
2023/05/09 04:05:21;;;;;;;7.93;6.18;;;;;;;16.51;65.38;101506.00;5050038;28;20049;-56
2023/05/09 04:07:49;;;;;;;9.32;6.30;;;;;;;16.51;65.24;101500.56;5045920;28;20199;-61
2023/05/09 04:10:17;;;;;;;9.07;5.57;;;;;;;16.50;65.41;101492.66;5059964;28;20063;-60
2023/05/09 04:12:45;;;;;;;9.57;6.72;;;;;;;16.49;65.33;101488.31;5049060;28;20100;-60
2023/05/09 04:15:13;;;;;;;8.75;5.80;;;;;;;16.50;65.19;101484.53;5054832;28;20393;-61
2023/05/09 04:17:43;;;;;;;9.10;6.20;;;;;;;16.48;65.32;101484.78;5051531;28;20053;-60
2023/05/09 04:20:12;;;;;;;7.97;6.05;;;;;;;16.47;65.09;101482.31;5055946;28;20049;-60
2023/05/09 04:22:40;;;;;;;8.75;6.75;;;;;;;16.47;65.39;101476.88;5059495;28;20069;-60
2023/05/09 04:25:11;;;;;;;7.57;5.65;;;;;;;16.45;65.51;101484.44;5059812;28;20048;-59
2023/05/09 04:27:39;;;;;;;9.13;6.13;;;;;;;16.45;65.32;101481.72;5054848;28;20044;-60
2023/05/09 04:30:09;;;;;;;9.50;6.20;;;;;;;16.44;65.34;101489.03;5052546;28;20087;-58
2023/05/09 04:32:37;;;;;;;7.82;5.93;;;;;;;16.44;65.30;101482.78;5053817;28;20056;-60
2023/05/09 04:35:08;;;;;;;7.65;5.97;;;;;;;16.43;65.22;101476.53;5056528;28;20112;-56
2023/05/09 04:37:35;;;;;;;7.82;5.68;;;;;;;16.42;65.25;101483.03;5051428;28;20092;-61
2023/05/09 04:40:04;;;;;;;7.80;5.38;;;;;;;16.41;65.23;101477.88;5063339;28;20064;-59
2023/05/09 04:42:32;;;;;;;7.47;5.72;;;;;;;16.41;65.37;101477.88;5058439;28;20141;-61
2023/05/09 04:45:00;;;;;;;8.68;5.95;;;;;;;16.41;65.32;101467.00;5056034;28;20040;-60
2023/05/09 04:47:28;;;;;;;9.70;6.07;;;;;;;16.40;65.30;101465.38;5060288;28;20041;-62
2023/05/09 04:49:56;;;;;;;7.63;5.78;;;;;;;16.40;65.27;101465.38;5049584;28;20049;-62
2023/05/09 04:52:25;;;;;;;9.88;6.15;;;;;;;16.39;65.07;101455.56;5056801;28;20110;-61
2023/05/09 04:54:54;;;;;;;8.10;5.75;;;;;;;16.37;65.17;101458.53;5047981;28;20041;-61
2023/05/09 04:57:22;;;;;;;8.27;6.45;;;;;;;16.37;65.33;101450.41;5047945;28;20077;-61
2023/05/09 04:59:50;;;;;;;10.45;6.35;;;;;;;16.37;65.31;101452.28;5055108;28;20052;-64
2023/05/09 05:02:18;;;;;;;8.73;5.10;;;;;;;16.36;65.33;101447.94;5044152;28;20058;-62
2023/05/09 05:04:45;;;;;;;7.97;5.38;;;;;;;16.36;65.24;101439.78;5051197;28;20379;-64
2023/05/09 05:07:13;;;;;;;8.93;6.22;;;;;;;16.34;65.30;101440.03;5053240;28;20075;-63
2023/05/09 05:09:42;;;;;;;7.90;5.50;;;;;;;16.35;65.47;101432.72;5055453;28;20049;-63
2023/05/09 05:12:11;;;;;;;8.20;5.80;;;;;;;16.34;65.29;101431.91;5054347;28;20084;-60
2023/05/09 05:14:39;;;;;;;8.23;5.75;;;;;;;16.25;65.21;101414.38;5060435;28;20041;-61
2023/05/09 05:17:07;;;;;;;8.60;5.85;;;;;;;16.33;65.36;101419.41;5058478;28;20053;-61
2023/05/09 05:19:35;;;;;;;6.97;4.95;;;;;;;16.33;65.36;101416.69;5061111;28;20045;-55
2023/05/09 05:22:02;;;;;;;9.18;6.35;;;;;;;16.32;65.39;101420.47;5056071;28;20629;-61
2023/05/09 05:24:30;;;;;;;8.27;6.32;;;;;;;16.33;65.34;101429.44;4707558;28;10000078;-61
2023/05/09 05:26:59;;;;;;;9.32;6.30;;;;;;;16.40;65.24;101413.81;5054917;28;20325;-59
2023/05/09 05:29:27;;;;;;;7.13;5.65;;;;;;;16.36;65.23;101404.53;5056294;28;20059;-60
2023/05/09 05:31:55;;;;;;;7.45;5.72;;;;;;;16.33;65.68;101403.13;5052472;28;20045;-61
2023/05/09 05:34:23;;;;;;;11.20;6.32;;;;;;;16.33;65.58;101408.56;5052861;28;20066;-61
2023/05/09 05:36:51;;;;;;;7.43;5.63;;;;;;;16.35;65.89;101403.72;5057200;28;20053;-61
2023/05/09 05:39:19;;;;;;;6.65;4.97;;;;;;;16.34;65.51;101403.94;5054341;28;20061;-64
2023/05/09 05:41:47;;;;;;;8.18;5.18;;;;;;;16.33;65.33;101403.13;5055587;28;20048;-63
2023/05/09 05:44:17;;;;;;;8.48;5.63;;;;;;;16.33;65.48;101399.59;5057110;28;20049;-64
2023/05/09 05:46:44;;;;;;;6.75;5.38;;;;;;;16.31;65.39;101394.41;5054530;28;20049;-63
2023/05/09 05:49:12;;;;;;;9.10;6.10;;;;;;;16.31;65.45;101393.59;5050244;28;20049;-62
2023/05/09 05:51:40;;;;;;;8.80;5.15;;;;;;;16.32;65.45;101398.78;5058451;28;20088;-61
2023/05/09 05:54:08;;;;;;;6.28;4.78;;;;;;;16.32;65.59;101395.25;5053925;28;20049;-62
2023/05/09 05:56:36;;;;;;;8.60;5.13;;;;;;;16.33;65.60;101386.84;5045720;28;20136;-63
2023/05/09 05:59:03;;;;;;;7.47;5.20;;;;;;;16.33;65.68;101386.03;5041041;28;20060;-61
2023/05/09 06:01:33;;;;;;;6.97;5.07;;;;;;;16.34;65.50;101384.97;5050493;28;20057;-61
2023/05/09 06:04:01;;;;;;;6.28;5.03;;;;;;;16.34;65.69;101374.13;5044738;28;20053;-60
2023/05/09 06:06:29;;;;;;;8.82;5.13;;;;;;;16.37;65.61;101379.88;5058115;28;20204;-57
2023/05/09 06:08:57;;;;;;;9.02;5.18;;;;;;;16.36;65.73;101378.22;5056899;28;20389;-60
2023/05/09 06:11:25;;;;;;;7.88;4.97;;;;;;;16.28;65.58;101360.47;5056139;28;20056;-60
2023/05/09 06:13:53;;;;;;;9.82;5.38;;;;;;;16.27;65.76;101358.81;5054078;28;20092;-62
2023/05/09 06:16:20;;;;;;;8.57;5.50;;;;;;;16.35;66.11;101371.16;5055185;28;20091;-59
2023/05/09 06:18:50;;;;;;;9.82;5.75;;;;;;;16.37;66.00;101366.31;5049694;28;20074;-57
2023/05/09 06:21:21;;;;;;;6.78;5.25;;;;;;;16.36;65.84;101352.97;5057753;28;20069;-53
2023/05/09 06:23:49;;;;;;;7.18;4.80;;;;;;;16.37;65.89;101360.88;5060920;28;20045;-62
2023/05/09 06:26:37;;;;;;;7.07;4.95;;;;;;;16.38;65.90;101361.69;5055134;28;20060;-62
2023/05/09 06:29:06;;;;;;;8.27;4.72;;;;;;;16.38;65.94;101362.53;5052367;28;20045;-62
2023/05/09 06:31:37;;;;;;;9.38;4.97;;;;;;;16.39;65.88;101363.34;5059402;28;20064;-61
2023/05/09 06:34:07;;;;;;;12.63;5.25;;;;;;;16.40;65.88;101351.41;5059696;28;20045;-62
2023/05/09 06:36:35;;;;;;;6.75;5.05;;;;;;;16.40;65.94;101354.13;5060904;28;20049;-62
2023/05/09 06:39:03;;;;;;;11.68;4.75;;;;;;;16.38;65.85;101356.28;5060359;28;20053;-62
2023/05/09 06:41:31;;;;;;;16.08;5.22;;;;;;;16.39;66.04;101357.91;5060896;28;20052;-62
2023/05/09 06:44:01;;;;;;;8.23;5.00;;;;;;;16.41;65.90;101350.34;5055170;28;20053;-61
2023/05/09 06:46:29;;;;;;;7.28;4.93;;;;;;;16.40;66.07;101348.72;5060375;28;20129;-61
2023/05/09 06:48:56;;;;;;;6.43;4.90;;;;;;;16.41;65.94;101339.50;5060406;28;20048;-62
2023/05/09 06:51:26;;;;;;;7.03;5.13;;;;;;;16.41;66.07;101336.78;5060523;28;20110;-62
2023/05/09 06:53:54;;;;;;;6.80;4.70;;;;;;;16.40;66.00;101332.44;5059004;28;20092;-62
2023/05/09 06:56:22;;;;;;;8.13;4.72;;;;;;;16.40;66.01;101335.97;5060339;28;20080;-61
2023/05/09 06:58:50;;;;;;;8.48;4.88;;;;;;;16.39;65.96;101328.91;5060404;28;20095;-63
2023/05/09 07:01:18;;;;;;;7.45;4.30;;;;;;;16.40;66.04;101329.72;5059598;28;20479;-60
2023/05/09 07:03:46;;;;;;;9.98;4.50;;;;;;;16.40;66.36;101329.72;5059805;28;20075;-63
2023/05/09 07:06:14;;;;;;;5.88;4.80;;;;;;;16.41;66.12;101329.47;5059855;28;20048;-62
2023/05/09 07:08:43;;;;;;;9.10;5.32;;;;;;;16.40;66.03;101327.00;5058209;28;20045;-65
2023/05/09 07:11:11;;;;;;;9.45;4.40;;;;;;;16.41;66.11;101326.75;5060217;28;20088;-62
2023/05/09 07:13:39;;;;;;;6.32;4.30;;;;;;;16.34;66.34;101312.53;5060663;28;20045;-64
2023/05/09 07:16:07;;;;;;;6.65;4.80;;;;;;;16.41;66.07;101317.78;5054449;28;20510;-62
2023/05/09 07:18:35;;;;;;;6.50;4.25;;;;;;;16.41;66.01;101315.09;5058370;28;20048;-62
2023/05/09 07:21:03;;;;;;;5.65;3.92;;;;;;;16.42;66.02;101316.72;5059264;28;20048;-62
2023/05/09 07:23:31;;;;;;;6.30;4.45;;;;;;;16.41;66.08;101315.91;5061175;28;20076;-62
2023/05/09 07:26:00;;;;;;;6.97;3.85;;;;;;;16.38;66.23;101308.25;5059974;28;20167;-62
2023/05/09 07:28:28;;;;;;;5.97;4.38;;;;;;;16.42;66.37;101322.97;5059306;28;20049;-63
2023/05/09 07:30:56;;;;;;;5.72;4.28;;;;;;;16.42;66.12;101309.41;5057991;28;20055;-62
2023/05/09 07:33:24;;;;;;;5.38;4.07;;;;;;;16.41;66.18;101307.75;5060564;28;20438;-62
2023/05/09 07:35:52;;;;;;;6.05;3.90;;;;;;;16.42;66.21;101308.59;5051737;28;20109;-61
2023/05/09 07:38:20;;;;;;;4.65;3.72;;;;;;;16.42;66.27;101309.41;5062998;28;20121;-61
2023/05/09 07:40:48;;;;;;;6.00;4.00;;;;;;;16.42;66.47;101311.31;5057710;28;20554;-62
2023/05/09 07:43:17;;;;;;;7.07;4.15;;;;;;;16.42;66.45;101308.59;5059971;28;20130;-62
2023/05/09 07:45:45;;;;;;;6.00;3.83;;;;;;;16.41;66.65;101306.94;5061228;28;20132;-62
2023/05/09 07:48:13;;;;;;;6.07;4.10;;;;;;;16.41;66.76;101309.66;5064194;28;20517;-62
2023/05/09 07:50:41;;;;;;;4.88;3.80;;;;;;;16.40;66.54;101300.69;5061610;28;20080;-62
2023/05/09 07:53:09;;;;;;;4.22;3.20;;;;;;;16.39;66.48;101299.06;5063711;28;20059;-62
2023/05/09 07:55:37;;;;;;;7.05;3.85;;;;;;;16.40;66.50;101295.28;5062865;28;20049;-62
2023/05/09 07:58:05;;;;;;;4.93;3.60;;;;;;;16.40;66.32;101297.16;5064466;28;20080;-62
2023/05/09 08:00:35;;;;;;;6.78;3.92;;;;;;;16.41;66.45;101285.25;5054178;28;20049;-62
2023/05/09 08:03:02;;;;;;;7.30;3.30;;;;;;;16.41;66.45;101277.09;5058947;28;20155;-62
2023/05/09 08:05:31;;;;;;;6.03;3.28;;;;;;;16.41;66.53;101277.09;5061465;28;20203;-62
2023/05/09 08:07:59;;;;;;;4.80;3.10;;;;;;;16.40;66.47;101273.56;5059053;28;21004;-64
2023/05/09 08:10:29;;;;;;;4.70;3.42;;;;;;;16.33;66.61;101261.25;5050844;28;20057;-61
2023/05/09 08:12:57;;;;;;;3.92;2.78;;;;;;;16.41;66.64;101268.97;5063205;28;20045;-62
2023/05/09 08:15:25;;;;;;;4.90;3.40;;;;;;;16.41;66.45;101260.81;5062066;28;20064;-62
2023/05/09 08:17:54;;;;;;;5.47;3.70;;;;;;;16.43;66.42;101261.41;5063864;28;20055;-62
2023/05/09 08:20:23;;;;;;;8.38;4.10;;;;;;;16.42;66.72;101251.63;5061599;28;20109;-59
2023/05/09 08:22:51;;;;;;;8.60;3.40;;;;;;;16.42;66.81;101255.16;5062924;28;20083;-62
2023/05/09 08:25:19;;;;;;;5.20;3.42;;;;;;;16.42;66.69;101248.91;5053234;28;20045;-62
2023/05/09 08:27:47;;;;;;;5.47;3.50;;;;;;;16.41;66.69;101239.94;5062870;28;20057;-62
2023/05/09 08:30:16;;;;;;;4.35;3.08;;;;;;;16.42;66.55;101241.59;5049132;28;20092;-61
2023/05/09 08:32:44;;;;;;;4.95;3.20;;;;;;;16.43;66.58;101239.69;5057907;28;20049;-60
2023/05/09 08:35:14;;;;;;;5.95;3.70;;;;;;;16.43;67.16;101234.25;5063051;28;20112;-62
2023/05/09 08:37:42;;;;;;;5.30;3.40;;;;;;;16.49;66.92;101244.94;5060275;28;20075;-62
2023/05/09 08:40:11;;;;;;;7.05;3.55;;;;;;;16.46;66.78;101223.72;5061864;28;20049;-63
2023/05/09 08:42:40;;;;;;;7.32;3.55;;;;;;;16.44;66.76;101239.44;5060852;28;20100;-62
2023/05/09 08:45:10;;;;;;;4.95;3.45;;;;;;;16.44;66.83;101234.00;5048936;28;20342;-64
2023/05/09 08:47:38;;;;;;;5.50;3.33;;;;;;;16.44;67.29;101238.63;5043245;28;20049;-62
2023/05/09 08:50:08;;;;;;;4.90;3.65;;;;;;;16.43;67.31;101235.09;5046409;28;20049;-61
2023/05/09 08:52:37;;;;;;;4.97;3.33;;;;;;;16.43;67.04;101226.94;5046593;28;20167;-61
2023/05/09 08:55:05;;;;;;;5.30;2.95;;;;;;;16.36;67.35;101212.75;5051269;28;20067;-62
2023/05/09 08:57:35;;;;;;;5.47;2.83;;;;;;;16.43;67.21;101226.13;5051887;28;20049;-62
2023/05/09 09:00:05;;;;;;;6.47;3.10;;;;;;;16.40;67.15;101219.31;5058956;28;20049;-62
2023/05/09 09:02:33;;;;;;;4.25;2.65;;;;;;;16.50;67.38;101227.59;5042504;28;20403;-62
2023/05/09 09:05:01;;;;;;;5.25;2.85;;;;;;;16.49;67.29;101228.66;5054235;28;20392;-60
2023/05/09 09:07:33;;;;;;;4.22;2.78;;;;;;;16.47;67.31;101229.97;5048510;28;20076;-62
2023/05/09 09:10:03;;;;;;;4.47;2.58;;;;;;;16.46;67.40;101220.19;5048857;28;20116;-62
2023/05/09 09:12:32;;;;;;;3.53;2.88;;;;;;;16.37;67.57;101208.97;5050036;28;20081;-62
2023/05/09 09:15:04;;;;;;;4.63;3.05;;;;;;;16.43;67.35;101218.81;5053197;28;20041;-62
2023/05/09 09:17:35;;;;;;;8.65;2.55;;;;;;;16.45;67.36;101218.56;5049701;28;20045;-62
2023/05/09 09:20:07;;;;;;;4.38;2.30;;;;;;;16.66;67.29;101216.94;5051195;28;20045;-62
2023/05/09 09:22:37;;;;;;;4.00;2.70;;;;;;;16.54;67.31;101214.34;5047161;28;20050;-62
2023/05/09 09:25:07;;;;;;;4.90;2.50;;;;;;;16.50;67.36;101215.91;5061250;28;20049;-62
2023/05/09 09:27:35;;;;;;;4.43;2.50;;;;;;;16.47;67.49;101209.09;5054363;28;20053;-63
2023/05/09 09:30:11;;;;;;;5.45;2.58;;;;;;;16.46;67.60;101199.31;5051866;28;20143;-62
2023/05/09 09:32:39;;;;;;;4.55;2.50;;;;;;;16.46;67.71;101202.03;5044437;28;20053;-62
2023/05/09 09:35:09;;;;;;;2.88;2.42;;;;;;;16.46;67.84;101202.03;5054821;28;20106;-62
2023/05/09 09:37:40;;;;;;;6.88;2.40;;;;;;;16.47;67.75;101192.00;5047867;28;20059;-62
2023/05/09 09:40:11;;;;;;;3.72;2.28;;;;;;;16.46;67.89;101190.34;5049260;28;20139;-62
2023/05/09 09:42:43;;;;;;;4.80;2.20;;;;;;;16.46;67.83;101191.19;5048112;28;20080;-62
2023/05/09 09:45:13;;;;;;;3.00;2.30;;;;;;;16.47;68.00;101192.00;5047081;28;20119;-63
2023/05/09 09:47:43;;;;;;;3.85;2.35;;;;;;;16.47;68.23;101189.28;5041525;28;20510;-63
2023/05/09 09:50:12;;;;;;;3.10;2.20;;;;;;;16.47;68.04;101186.56;5055092;28;20486;-62
2023/05/09 09:52:48;;;;;;;4.10;2.60;;;;;;;16.47;68.02;101181.16;5051459;28;20045;-51
2023/05/09 09:55:18;;;;;;;3.40;2.28;;;;;;;16.52;68.41;101187.44;5056133;28;20049;-61
2023/05/09 09:57:47;;;;;;;3.60;2.60;;;;;;;16.53;68.02;101180.94;5041183;28;20105;-62
2023/05/09 10:00:16;;;;;;;3.33;2.22;;;;;;;16.51;68.21;101177.69;5045655;28;20053;-61
2023/05/09 10:02:49;;;;;;;4.43;2.35;;;;;;;16.50;68.12;101176.03;5046188;28;20056;-62
2023/05/09 10:05:21;;;;;;;3.33;2.13;;;;;;;16.42;68.41;101159.38;5055381;28;20485;-62
2023/05/09 10:07:52;;;;;;;3.53;2.45;;;;;;;16.51;68.21;101172.25;5046541;28;20109;-59
2023/05/09 10:10:22;;;;;;;3.17;2.20;;;;;;;16.51;68.33;101176.84;5058720;28;20065;-61
2023/05/09 10:12:53;;;;;;;3.55;1.98;;;;;;;16.49;68.30;101171.69;5046032;28;20072;-61
2023/05/09 10:15:23;;;;;;;3.83;2.00;;;;;;;16.51;68.52;101168.72;5053027;28;20118;-61
2023/05/09 10:17:54;;;;;;;5.80;2.50;;;;;;;16.50;68.36;101173.31;5044243;28;20503;-62
2023/05/09 10:20:23;;;;;;;2.60;2.20;;;;;;;16.51;68.55;101168.72;5042905;28;20051;-56
2023/05/09 10:22:54;;;;;;;4.13;2.13;;;;;;;16.50;68.47;101173.31;5046417;28;20041;-62
2023/05/09 10:25:28;;;;;;;6.00;2.17;;;;;;;16.43;68.30;101155.59;5055815;28;20072;-62
2023/05/09 10:28:00;;;;;;;2.90;1.90;;;;;;;16.51;68.66;101166.00;5042418;28;20052;-63
2023/05/09 10:30:31;;;;;;;3.33;1.90;;;;;;;16.51;68.75;101163.28;5045179;28;20081;-62
2023/05/09 10:33:04;;;;;;;3.25;2.13;;;;;;;16.50;68.62;101158.94;5055073;28;20129;-62
2023/05/09 10:35:36;;;;;;;2.60;1.98;;;;;;;16.42;68.60;101143.09;5050635;28;20056;-62
2023/05/09 10:38:06;;;;;;;2.70;1.77;;;;;;;16.49;68.63;101154.59;5069474;28;20049;-62
2023/05/09 10:40:36;;;;;;;5.50;2.30;;;;;;;16.49;68.68;101146.44;5051487;28;20049;-62
2023/05/09 10:43:06;;;;;;;2.67;1.85;;;;;;;16.49;68.62;101146.44;5059569;28;20072;-62
2023/05/09 10:45:34;;;;;;;4.13;2.10;;;;;;;16.49;68.54;101135.59;5058912;28;20109;-62
2023/05/09 10:48:07;;;;;;;3.20;1.88;;;;;;;16.49;68.62;101141.84;5060268;28;20037;-61
2023/05/09 10:50:39;;;;;;;2.75;2.05;;;;;;;16.48;68.72;101136.66;5060439;28;20041;-62
2023/05/09 10:53:10;;;;;;;3.35;1.90;;;;;;;16.50;68.50;101127.19;5053954;28;20053;-61
2023/05/09 10:55:49;;;;;;;3.53;2.17;;;;;;;16.63;68.24;101128.69;5059658;28;20048;-62
2023/05/09 10:58:23;;;;;;;4.93;2.08;;;;;;;16.54;68.43;101131.03;5060518;28;20052;-63
2023/05/09 11:00:52;;;;;;;2.88;2.17;;;;;;;16.51;68.57;101122.59;5060394;28;20520;-62
2023/05/09 11:03:23;;;;;;;3.33;2.03;;;;;;;16.39;68.73;101109.16;5060501;28;20053;-62
2023/05/09 11:05:53;;;;;;;3.47;2.00;;;;;;;16.48;68.76;101120.38;5056986;28;20052;-63
2023/05/09 11:08:24;;;;;;;2.80;2.22;;;;;;;16.47;68.75;101118.75;5055036;28;20136;-62
2023/05/09 11:10:53;;;;;;;3.40;2.20;;;;;;;16.45;68.91;101112.75;5047094;28;20053;-62
2023/05/09 11:13:23;;;;;;;2.55;2.10;;;;;;;16.46;68.83;101112.50;5051755;28;20046;-62
2023/05/09 11:16:08;;;;;;;4.07;2.30;;;;;;;16.45;68.75;101110.03;5051633;28;20084;-62
2023/05/09 11:18:50;;;;;;;5.13;2.10;;;;;;;16.44;68.96;101108.41;5055075;28;20045;-62
2023/05/09 11:21:20;;;;;;;5.03;2.00;;;;;;;16.52;68.49;101108.78;5045891;28;20091;-60
2023/05/09 11:23:48;;;;;;;3.47;1.88;;;;;;;16.48;68.84;101102.22;5048039;28;20312;-62
2023/05/09 11:26:22;;;;;;;3.88;1.92;;;;;;;16.45;68.86;101100.00;5045168;28;20061;-62
2023/05/09 11:28:55;;;;;;;3.20;1.98;;;;;;;16.44;68.67;101098.38;5044077;28;20053;-63
2023/05/09 11:31:23;;;;;;;3.20;1.75;;;;;;;16.44;68.69;101094.84;5060845;28;20049;-62